Latest Weather Observations for Ceduna

IDS60801

Issued at 10:31 am CST Tuesday 4 August 2015 (issued every 30 minutes, with the page automatically refreshed every 10 minutes)

About weather observations | Map of weather stations | Latest weather observations for SA | Other Formats
Station Details ID: 018012 Name: CEDUNA AMO Lat: -32.13 Lon: 133.70 Height: 15.3 m
Data from the previous 72 hours. | See also: Recent months at Ceduna
Date/Time
CST
Temp
°C
App
Temp
°C
Dew
Point
Rel
Hum
%
Delta-T
°C
Wind Press
QNH
hPa
Press
MSL
hPa
Rain
since 9 am
mm
Dir
 
Spd
km/h
Gust
km/h
Spd
kts
Gust
kts
04/10:30am 13.3 10.3 9.4 77 2.0 SSW 15 20 8 11 1031.3 1031.3 0.0
04/10:00am 13.6 10.9 9.1 74 2.3 WSW 13 15 7 8 1031.2 1031.2 0.0
04/09:30am 12.4 9.4 9.2 81 1.6 SW 15 19 8 10 1031.2 1031.2 0.0
04/09:00am 11.8 9.7 9.7 87 1.1 W 11 19 6 10 1031.3 1031.3 1.0
04/08:30am 9.5 7.5 8.7 95 0.4 N 9 11 5 6 1030.9 1030.9 1.0
04/08:00am 8.5 6.6 7.7 95 0.4 S 7 7 4 4 1030.6 1030.6 1.0
04/07:30am 6.8 5.5 5.9 94 0.4 WSW 2 7 1 4 1030.4 1030.4 1.0
04/07:00am 8.4 6.6 8.0 97 0.2 N 7 9 4 5 1030.2 1030.2 1.0
04/06:30am 8.7 7.0 8.3 97 0.2 NNW 7 11 4 6 1030.1 1030.1 1.0
04/06:00am 9.6 8.2 9.0 96 0.3 SE 6 9 3 5 1029.8 1029.8 1.0
04/05:30am 8.1 6.5 7.8 98 0.1 NW 6 9 3 5 1029.8 1029.8 1.0
04/05:00am 8.0 5.4 7.6 97 0.2 N 11 13 6 7 1029.8 1029.8 1.0
04/04:30am 8.2 5.2 7.6 96 0.3 NNW 13 15 7 8 1029.9 1029.9 1.0
04/04:00am 10.0 8.1 9.2 95 0.4 SSE 9 15 5 8 1029.6 1029.6 1.0
04/03:45am 10.0 6.7 9.4 96 0.3 SSE 17 20 9 11 1029.7 1029.7 1.0
04/03:31am 10.3 6.5 9.8 97 0.3 SSW 20 28 11 15 1029.8 1029.8 1.0
04/03:30am 10.3 6.5 9.8 97 0.2 SSW 20 28 11 15 1029.8 1029.8 1.0
04/03:00am 8.9 7.3 8.0 94 0.4 S 6 7 3 4 1030.0 1030.0 0.8
04/02:30am 10.0 8.0 8.8 92 0.6 S 9 9 5 5 1030.0 1030.0 0.8
04/02:00am 10.8 8.0 8.7 87 1.0 SSW 13 17 7 9 1030.3 1030.3 0.8
04/01:30am 11.3 8.2 10.2 93 0.6 SSW 17 30 9 16 1030.4 1030.4 0.6
04/01:00am 10.9 8.0 9.7 92 0.6 W 15 20 8 11 1030.5 1030.5 0.6
04/12:30am 11.1 6.7 10.5 96 0.3 SW 24 32 13 17 1030.6 1030.6 0.4
04/12:00am 10.5 7.2 9.6 94 0.4 SW 17 24 9 13 1030.6 1030.6 0.4
 
Date/Time
CST
Temp
°C
App
Temp
°C
Dew
Point
Rel
Hum
%
Delta-T
°C
Wind Press
QNH
hPa
Press
MSL
hPa
Rain
since 9 am
mm
Dir
 
Spd
km/h
Gust
km/h
Spd
kts
Gust
kts
03/11:30pm 8.9 8.1 8.1 95 0.4 W 2 6 1 3 1030.6 1030.6 0.4
03/11:00pm 8.6 7.0 7.8 95 0.4 WNW 6 6 3 3 1030.7 1030.7 0.4
03/10:30pm 9.5 7.8 8.4 93 0.5 SSW 7 9 4 5 1030.8 1030.8 0.4
03/10:00pm 9.9 7.6 9.1 95 0.4 S 11 13 6 7 1031.0 1031.0 0.4
03/09:30pm 10.0 9.1 9.1 94 0.4 SSW 4 6 2 3 1031.2 1031.2 0.2
03/09:00pm 10.8 9.4 9.7 93 0.5 S 7 9 4 5 1031.1 1031.1 0.2
03/08:30pm 11.2 9.5 9.9 92 0.7 SSW 9 13 5 7 1031.0 1031.0 0.2
03/08:00pm 11.1 9.9 9.5 90 0.8 SSW 6 7 3 4 1030.7 1030.7 0.0
03/07:30pm 11.7 9.6 9.8 88 1.0 S 11 15 6 8 1030.5 1030.5 0.0
03/07:00pm 12.3 9.7 9.3 82 1.5 SSW 13 17 7 9 1030.2 1030.2 0.0
03/06:30pm 12.5 9.9 9.5 82 1.5 SSW 13 19 7 10 1030.2 1030.2 0.0
03/06:00pm 12.4 8.7 10.1 86 1.2 SSW 20 28 11 15 1029.9 1029.9 0.0
03/05:30pm 13.3 9.7 9.7 79 1.8 SW 19 24 10 13 1029.7 1029.7 0.0
03/05:00pm 13.9 10.6 9.5 75 2.3 SSW 17 22 9 12 1029.6 1029.6 0.0
03/04:30pm 14.3 11.1 9.9 75 2.3 SSW 17 22 9 12 1029.5 1029.5 0.0
03/04:00pm 14.3 10.0 9.3 72 2.6 SSW 22 30 12 16 1029.5 1029.5 0.0
03/03:30pm 15.0 11.0 9.1 68 3.0 SW 20 26 11 14 1029.4 1029.4 0.0
03/03:00pm 15.3 10.3 9.7 69 2.9 SW 26 32 14 17 1029.3 1029.3 0.0
03/02:30pm 15.5 11.6 9.6 68 3.0 SSW 20 28 11 15 1029.2 1029.2 0.0
03/02:00pm 16.0 11.1 11.2 73 2.6 SSW 28 35 15 19 1029.5 1029.5 0.0
03/01:30pm 16.4 12.6 9.1 62 3.7 SW 19 26 10 14 1029.6 1029.6 0.0
03/01:00pm 15.6 11.6 9.1 65 3.3 SSW 20 28 11 15 1029.9 1029.9 0.0
03/12:30pm 15.4 11.1 9.5 68 3.0 SSW 22 30 12 16 1030.2 1030.2 0.0
03/12:00pm 15.1 11.8 9.7 70 2.8 SW 17 24 9 13 1030.5 1030.5 0.0
03/11:30am 13.9 10.2 9.5 75 2.2 SSW 19 26 10 14 1030.8 1030.8 0.0
03/11:00am 14.5 10.3 9.7 73 2.5 SSW 22 28 12 15 1030.8 1030.8 0.0
03/10:30am 14.3 9.9 10.5 78 2.0 SSW 24 32 13 17 1030.7 1030.7 0.0
03/10:00am 14.9 10.6 10.7 76 2.2 SW 24 28 13 15 1030.5 1030.5 0.0
03/09:30am 14.2 11.4 11.2 82 1.6 SW 17 22 9 12 1030.3 1030.3 0.0
03/09:00am 13.0 10.2 11.4 90 0.8 SW 17 20 9 11 1030.0 1030.0 1.2
03/08:30am 12.5 8.1 10.4 87 1.1 WSW 24 32 13 17 1029.7 1029.7 1.2
03/08:00am 12.4 10.2 10.8 90 0.8 WSW 13 17 7 9 1029.5 1029.5 1.2
03/07:30am 11.7 9.2 9.8 88 1.0 SW 13 17 7 9 1029.2 1029.2 1.2
03/07:00am 12.2 8.4 9.8 85 1.2 SW 20 32 11 17 1029.1 1029.1 1.2
03/06:30am 12.1 9.2 9.7 85 1.2 WSW 15 19 8 10 1028.7 1028.7 1.2
03/06:00am 11.0 8.8 9.3 89 0.8 WSW 11 17 6 9 1028.6 1028.6 1.2
03/05:30am 9.7 7.5 9.2 97 0.2 WNW 11 17 6 9 1028.5 1028.5 1.2
03/05:00am 11.4 8.6 10.0 91 0.7 WSW 15 19 8 10 1028.3 1028.3 1.2
03/04:30am 10.7 8.0 9.1 90 0.8 WSW 13 15 7 8 1028.1 1028.1 1.2
03/04:00am 11.4 8.5 9.7 89 0.9 WSW 15 17 8 9 1028.1 1028.1 1.2
03/03:30am 11.9 7.2 9.3 84 1.3 WSW 24 33 13 18 1028.3 1028.3 1.2
03/03:00am 11.2 8.7 9.6 90 0.8 WSW 13 17 7 9 1028.4 1028.4 1.2
03/02:30am 10.7 8.2 9.8 94 0.5 WNW 13 22 7 12 1028.6 1028.6 1.2
03/02:00am 11.0 9.0 10.1 94 0.5 W 11 15 6 8 1028.7 1028.7 1.0
03/01:30am 9.0 7.5 8.4 96 0.3 N 6 7 3 4 1028.6 1028.6 1.0
03/01:00am 9.2 7.2 8.6 96 0.3 NW 9 13 5 7 1028.6 1028.6 1.0
03/12:30am 10.4 8.9 9.0 91 0.7 WNW 7 11 4 6 1028.7 1028.7 1.0
03/12:00am 11.7 8.9 9.9 89 0.9 WSW 15 20 8 11 1028.6 1028.6 1.0
 
Date/Time
CST
Temp
°C
App
Temp
°C
Dew
Point
Rel
Hum
%
Delta-T
°C
Wind Press
QNH
hPa
Press
MSL
hPa
Rain
since 9 am
mm
Dir
 
Spd
km/h
Gust
km/h
Spd
kts
Gust
kts
02/11:30pm 10.9 8.9 10.3 96 0.3 W 11 15 6 8 1028.7 1028.7 1.0
02/11:00pm 10.3 7.7 9.5 95 0.4 W 13 15 7 8 1028.6 1028.6 1.0
02/10:30pm 10.6 8.5 9.7 94 0.4 W 11 13 6 7 1028.7 1028.7 1.0
02/10:00pm 9.2 6.8 8.7 97 0.2 NNW 11 13 6 7 1028.6 1028.6 0.6
02/09:30pm 10.5 8.4 9.7 95 0.4 WNW 11 15 6 8 1028.7 1028.7 0.6
02/09:00pm 10.7 8.3 9.9 95 0.4 WNW 13 15 7 8 1028.4 1028.4 0.6
02/08:30pm 10.8 8.8 10.0 95 0.4 WNW 11 15 6 8 1028.3 1028.3 0.6
02/08:00pm 11.6 9.8 10.7 94 0.5 W 11 15 6 8 1028.1 1028.1 0.6
02/07:36pm 11.3 9.5 10.7 96 0.3 SW 11 17 6 9 1028.0 1028.0 0.4
02/07:30pm 11.2 8.9 10.6 96 0.3 SW 13 19 7 10 1027.9 1027.9 0.4
02/07:20pm 11.5 8.1 10.7 95 0.4 SW 19 24 10 13 1027.9 1027.9 0.4
02/07:00pm 11.5 9.1 10.2 92 0.7 W 13 15 7 8 1027.6 1027.6 0.0
02/06:30pm 11.3 7.6 9.6 89 0.9 W 19 24 10 13 1027.4 1027.4 0.0
02/06:00pm 12.3 8.3 9.1 81 1.6 W 20 28 11 15 1027.1 1027.1 0.0
02/05:30pm 13.2 9.1 10.0 81 1.6 WSW 22 30 12 16 1026.8 1026.8 0.0
02/05:00pm 13.7 8.6 9.2 74 2.3 WSW 26 35 14 19 1026.6 1026.6 0.0
02/04:30pm 14.1 9.3 8.7 70 2.7 W 24 33 13 18 1026.5 1026.5 0.0
02/04:00pm 14.5 9.4 7.5 63 3.5 WSW 24 32 13 17 1026.3 1026.3 0.0
02/03:30pm 15.0 10.0 8.0 63 3.5 WSW 24 33 13 18 1026.0 1026.0 0.0
02/03:00pm 14.3 9.2 9.3 72 2.5 W 26 30 14 16 1025.9 1025.9 0.0
02/02:30pm 13.4 7.9 9.3 76 2.1 W 28 35 15 19 1025.9 1025.9 0.0
02/02:00pm 15.3 9.2 8.3 63 3.5 WSW 30 43 16 23 1025.8 1025.8 0.0
02/01:30pm 14.9 10.1 7.2 60 3.8 WSW 22 30 12 16 1025.8 1025.8 0.0
02/01:00pm 15.6 10.1 7.4 58 4.1 WSW 26 33 14 18 1025.9 1025.9 0.0
02/12:30pm 15.1 10.5 6.4 56 4.2 WSW 20 30 11 16 1026.2 1026.2 0.0
02/12:00pm 14.6 9.9 5.9 56 4.1 WSW 20 28 11 15 1026.5 1026.5 0.0
02/11:30am 15.1 10.4 5.9 54 4.4 SW 20 26 11 14 1026.5 1026.5 0.0
02/11:00am 14.1 8.8 6.7 61 3.6 SW 24 32 13 17 1026.5 1026.5 0.0
02/10:30am 13.8 8.6 7.1 64 3.2 SW 24 30 13 16 1026.4 1026.4 0.0
02/10:00am 13.8 8.4 7.8 67 3.0 SSW 26 33 14 18 1025.9 1025.9 0.0
02/09:30am 12.5 9.8 9.1 80 1.7 SW 13 17 7 9 1025.7 1025.7 0.0
02/09:00am 10.9 6.8 8.7 86 1.1 WSW 20 26 11 14 1025.6 1025.6 1.0
02/08:30am 12.7 8.2 8.4 75 2.1 SW 22 33 12 18 1025.0 1025.0 1.0
02/08:00am 12.1 7.9 7.4 73 2.3 SW 19 28 10 15 1024.4 1024.4 1.0
02/07:30am 11.6 7.4 5.5 66 2.8 SSW 17 20 9 11 1023.9 1023.9 1.0
02/07:00am 11.7 7.1 6.4 70 2.5 SW 20 28 11 15 1023.4 1023.4 1.0
02/06:30am 11.7 7.9 7.6 76 2.0 SW 17 24 9 13 1023.0 1023.0 1.0
02/06:00am 11.2 7.4 7.5 78 1.8 SW 17 20 9 11 1022.6 1022.6 1.0
02/05:30am 10.8 7.6 6.9 77 1.8 SSW 13 17 7 9 1022.4 1022.4 1.0
02/05:00am 8.8 6.7 8.4 97 0.2 SSW 9 17 5 9 1022.3 1022.3 1.0
02/04:30am 7.8 5.9 7.5 98 0.1 NNE 7 9 4 5 1022.4 1022.4 1.0
02/04:00am 8.4 6.6 8.1 98 0.1 NNE 7 9 4 5 1022.2 1022.2 1.0
02/03:30am 8.4 6.8 8.1 98 0.1 NNW 6 7 3 4 1022.3 1022.3 1.0
02/03:00am 8.0 6.3 7.7 98 0.1 NNW 6 6 3 3 1022.0 1022.0 1.0
02/02:30am 8.1 6.3 7.8 98 0.1 N 7 9 4 5 1022.0 1022.0 1.0
02/02:00am 8.7 8.3 8.1 96 0.3 CALM 0 0 0 0 1021.9 1021.9 1.0
02/01:30am 9.2 8.9 8.7 97 0.2 CALM 0 4 0 2 1022.0 1022.0 1.0
02/01:00am 8.7 8.3 8.3 97 0.2 CALM 0 0 0 0 1021.8 1021.8 0.8
02/12:30am 8.9 7.6 7.8 93 0.5 SE 4 6 2 3 1021.7 1021.7 0.8
02/12:00am 9.3 7.8 8.4 94 0.4 SE 6 7 3 4 1021.5 1021.5 0.8
 
Date/Time
CST
Temp
°C
App
Temp
°C
Dew
Point
Rel
Hum
%
Delta-T
°C
Wind Press
QNH
hPa
Press
MSL
hPa
Rain
since 9 am
mm
Dir
 
Spd
km/h
Gust
km/h
Spd
kts
Gust
kts
01/11:30pm 9.3 7.8 8.4 94 0.4 SE 6 7 3 4 1021.2 1021.2 0.8
01/11:00pm 9.1 7.0 8.2 94 0.4 SE 9 11 5 6 1021.0 1021.0 0.8
01/10:30pm 9.5 7.0 8.1 91 0.7 SE 11 15 6 8 1020.9 1020.9 0.8
01/10:00pm 10.1 6.5 8.5 90 0.8 SSE 17 20 9 11 1020.3 1020.3 0.8
01/09:30pm 10.2 8.2 8.8 91 0.7 SSE 9 11 5 6 1021.0 1021.0 0.8
01/09:00pm 10.6 6.7 8.7 88 0.9 SE 19 20 10 11 1019.8 1019.8 0.8
01/08:30pm 11.0 7.0 8.9 87 1.0 SSE 20 26 11 14 1020.3 1020.3 0.8
01/08:00pm 11.1 7.5 9.7 91 0.7 SSE 19 24 10 13 1019.5 1019.5 0.8
01/07:30pm 11.2 7.5 9.5 89 0.9 SSE 19 24 10 13 1019.2 1019.2 0.8
01/07:00pm 11.1 7.8 9.4 89 0.9 S 17 22 9 12 1019.1 1019.1 0.8
01/06:30pm 10.8 5.9 8.4 85 1.2 SSE 24 32 13 17 1018.3 1018.3 0.8
01/06:00pm 11.9 6.3 10.0 88 1.0 S 30 39 16 21 1017.9 1017.9 0.2
01/05:30pm 12.3 7.5 9.0 80 1.7 S 24 35 13 19 1017.4 1017.4 0.2
01/05:00pm 12.9 9.1 9.9 82 1.5 S 20 28 11 15 1016.7 1016.7 0.2
01/04:30pm 13.7 9.4 9.2 74 2.3 S 22 28 12 15 1015.8 1015.8 0.0
01/04:00pm 14.3 9.4 8.5 68 2.9 SSE 24 30 13 16 1015.1 1015.1 0.0
01/03:30pm 14.8 8.6 9.4 70 2.8 SSE 32 41 17 22 1014.8 1014.8 0.0
01/03:00pm 14.8 9.3 9.0 68 3.0 SSE 28 41 15 22 1014.8 1014.8 0.0
01/02:30pm 15.3 9.7 10.3 72 2.6 SSE 30 41 16 22 1014.7 1014.7 0.0
01/02:00pm 16.2 10.6 10.3 68 3.1 SSE 30 37 16 20 1014.8 1014.8 0.0
01/01:30pm 15.3 10.2 10.5 73 2.5 SSE 28 39 15 21 1015.2 1015.2 0.0
01/01:00pm 15.3 10.3 10.9 75 2.3 SSE 28 37 15 20 1015.6 1015.6 0.0
01/12:30pm 14.8 9.0 10.8 77 2.1 SSE 32 41 17 22 1016.0 1016.0 0.0
01/12:00pm 14.8 9.4 11.0 78 2.0 SSE 30 39 16 21 1016.2 1016.2 0.0
01/11:30am 15.1 10.0 10.7 75 2.3 SE 28 35 15 19 1016.4 1016.4 0.0
01/11:00am 15.0 9.6 11.0 77 2.1 SE 30 39 16 21 1016.2 1016.2 0.0

Other Formats:

Comma delimited format used in spreadsheet applications
http://www.bom.gov.au/fwo/IDS60801/IDS60801.94653.axf

JavaScript Object Notation format (JSON) in row-major order
http://www.bom.gov.au/fwo/IDS60801/IDS60801.94653.json